Time;durP1;ratioP1;P1;durP2;ratioP2;P2;SDS_P1;SDS_P2;PMS_P1;PMS_P2;Temp;Humidity;BMP_temperature;BMP_pressure;BME280_temperature;BME280_humidity;BME280_pressure;Samples;Min_cycle;Max_cycle;Signal;HPM_P1;HPM_P2
2022/04/10 00:02:22;;;;;;;;;2.00;2.00;;;;;;;;5093970;27;45385;-69
2022/04/10 00:04:47;;;;;;;;;2.75;2.00;;;;;;;;5092912;27;45293;-70
2022/04/10 00:07:12;;;;;;;;;2.00;2.00;;;;;;;;5096210;27;47585;-69
2022/04/10 00:09:37;;;;;;;;;2.00;2.00;;;;;;;;5092519;27;46212;-69
2022/04/10 00:12:03;;;;;;;;;1.00;1.00;;;;;;;;5092528;27;45548;-69
2022/04/10 00:14:28;;;;;;;;;2.50;2.50;;;;;;;;5092314;27;45526;-69
2022/04/10 00:16:54;;;;;;;;;2.50;2.50;;;;;;;;5094514;27;45272;-69
2022/04/10 00:19:19;;;;;;;;;2.00;2.00;;;;;;;;5095690;27;45499;-69
2022/04/10 00:21:45;;;;;;;;;1.00;1.00;;;;;;;;5093344;27;45497;-70
2022/04/10 00:24:11;;;;;;;;;2.25;2.25;;;;;;;;5093373;27;45382;-70
2022/04/10 00:26:36;;;;;;;;;3.00;3.00;;;;;;;;5092558;27;46183;-69
2022/04/10 00:29:01;;;;;;;;;2.00;2.00;;;;;;;;5092220;27;45358;-69
2022/04/10 00:31:26;;;;;;;;;2.50;2.50;;;;;;;;5094614;27;45292;-69
2022/04/10 00:33:52;;;;;;;;;2.25;2.25;;;;;;;;5091917;27;45354;-69
2022/04/10 00:36:17;;;;;;;;;4.25;2.00;;;;;;;;5093719;27;48200;-69
2022/04/10 00:38:43;;;;;;;;;2.25;2.25;;;;;;;;5091759;27;45573;-72
2022/04/10 00:41:08;;;;;;;;;1.00;1.00;;;;;;;;5093718;27;45578;-70
2022/04/10 00:43:34;;;;;;;;;3.75;3.25;;;;;;;;5094193;27;45412;-71
2022/04/10 00:46:00;;;;;;;;;1.00;1.00;;;;;;;;5093085;27;45678;-72
2022/04/10 00:48:25;;;;;;;;;2.00;2.00;;;;;;;;5091191;27;45268;-70
2022/04/10 00:53:36;;;;;;;;;2.25;2.00;;;;;;;;5091384;27;45355;-72
2022/04/10 00:56:02;;;;;;;;;1.25;1.25;;;;;;;;5091510;27;45495;-72
2022/04/10 00:58:27;;;;;;;;;2.00;2.00;;;;;;;;5093937;27;45383;-72
2022/04/10 01:00:53;;;;;;;;;1.25;1.25;;;;;;;;5092274;27;45474;-72
2022/04/10 01:03:18;;;;;;;;;6.00;2.00;;;;;;;;5091535;27;45262;-73
2022/04/10 01:05:45;;;;;;;;;2.00;2.00;;;;;;;;5091194;27;45401;-72
2022/04/10 01:08:10;;;;;;;;;2.00;2.00;;;;;;;;5091283;27;45587;-71
2022/04/10 01:10:35;;;;;;;;;2.25;2.25;;;;;;;;5092457;27;45331;-71
2022/04/10 01:13:00;;;;;;;;;2.00;2.00;;;;;;;;5093368;27;45278;-70
2022/04/10 01:15:26;;;;;;;;;2.00;2.00;;;;;;;;5092490;27;48604;-71
2022/04/10 01:17:51;;;;;;;;;2.50;2.50;;;;;;;;5092535;27;45386;-67
2022/04/10 01:20:16;;;;;;;;;2.25;2.25;;;;;;;;5093697;27;45941;-69
2022/04/10 01:22:43;;;;;;;;;4.25;4.25;;;;;;;;5093555;27;45496;-73
2022/04/10 01:25:08;;;;;;;;;4.50;4.00;;;;;;;;5095601;27;46529;-69
2022/04/10 01:27:35;;;;;;;;;5.75;5.75;;;;;;;;5091646;27;45354;-69
2022/04/10 01:30:01;;;;;;;;;4.25;3.25;;;;;;;;5093195;27;45393;-70
2022/04/10 01:32:26;;;;;;;;;2.25;2.25;;;;;;;;5093143;27;45501;-70
2022/04/10 01:34:51;;;;;;;;;3.25;3.25;;;;;;;;5091561;27;45469;-70
2022/04/10 01:37:18;;;;;;;;;3.75;3.00;;;;;;;;5095455;27;45249;-70
2022/04/10 01:39:43;;;;;;;;;5.00;4.00;;;;;;;;5091129;27;45364;-70
2022/04/10 01:42:08;;;;;;;;;3.75;3.75;;;;;;;;5093257;27;45312;-69
2022/04/10 01:44:40;;;;;;;;;2.00;2.00;;;;;;;;5091343;27;45441;-70
2022/04/10 01:47:05;;;;;;;;;4.75;3.00;;;;;;;;5096727;27;45400;-70
2022/04/10 01:49:31;;;;;;;;;4.25;2.00;;;;;;;;5097429;27;45685;-71
2022/04/10 01:51:56;;;;;;;;;4.00;3.00;;;;;;;;5080346;27;45687;-70
2022/04/10 01:54:21;;;;;;;;;4.25;3.25;;;;;;;;5095940;27;45459;-70
2022/04/10 01:56:46;;;;;;;;;3.75;3.75;;;;;;;;5096549;27;45448;-70
2022/04/10 01:59:11;;;;;;;;;4.00;3.00;;;;;;;;5095673;27;45444;-70
2022/04/10 02:01:37;;;;;;;;;6.00;4.75;;;;;;;;5096289;27;45399;-70
2022/04/10 02:04:02;;;;;;;;;4.00;4.00;;;;;;;;5096550;27;46504;-70
2022/04/10 02:06:27;;;;;;;;;2.50;2.50;;;;;;;;5096169;27;45578;-70
2022/04/10 02:08:52;;;;;;;;;4.50;4.50;;;;;;;;5096143;27;45208;-70
2022/04/10 02:11:19;;;;;;;;;3.00;3.00;;;;;;;;5095277;27;45418;-70
2022/04/10 02:13:45;;;;;;;;;3.25;3.25;;;;;;;;5096589;27;45404;-70
2022/04/10 02:16:11;;;;;;;;;3.50;3.50;;;;;;;;5098143;27;45393;-70
2022/04/10 02:18:38;;;;;;;;;5.50;4.00;;;;;;;;5085761;27;46127;-70
2022/04/10 02:21:04;;;;;;;;;4.50;4.25;;;;;;;;5090406;27;45432;-70
2022/04/10 02:23:29;;;;;;;;;4.00;4.00;;;;;;;;5095866;27;46275;-70
2022/04/10 02:25:54;;;;;;;;;3.75;3.75;;;;;;;;5097254;27;45335;-69
2022/04/10 02:28:19;;;;;;;;;4.75;4.75;;;;;;;;5098374;27;45389;-70
2022/04/10 02:30:45;;;;;;;;;3.25;3.25;;;;;;;;5097692;27;45431;-70
2022/04/10 02:33:10;;;;;;;;;6.50;5.00;;;;;;;;5097253;27;45457;-70
2022/04/10 02:35:35;;;;;;;;;4.00;4.00;;;;;;;;5096406;27;45279;-70
2022/04/10 02:38:00;;;;;;;;;3.00;3.00;;;;;;;;5095923;27;45406;-70
2022/04/10 02:40:26;;;;;;;;;4.00;4.00;;;;;;;;5096765;27;45351;-70
2022/04/10 02:42:51;;;;;;;;;4.00;3.25;;;;;;;;5095214;27;45283;-70
2022/04/10 02:45:16;;;;;;;;;6.75;5.25;;;;;;;;5094387;27;45538;-70
2022/04/10 02:47:42;;;;;;;;;4.75;3.50;;;;;;;;5096613;27;45333;-70
2022/04/10 02:50:08;;;;;;;;;6.00;4.00;;;;;;;;5094047;27;45593;-70
2022/04/10 02:52:33;;;;;;;;;3.50;3.50;;;;;;;;5095674;27;45441;-70
2022/04/10 02:54:58;;;;;;;;;4.00;3.25;;;;;;;;5095372;27;45342;-69
2022/04/10 02:57:23;;;;;;;;;3.25;3.25;;;;;;;;5092876;27;45450;-70
2022/04/10 02:59:48;;;;;;;;;4.25;4.25;;;;;;;;5095172;27;45581;-70
2022/04/10 03:02:14;;;;;;;;;3.75;3.75;;;;;;;;5093576;27;45545;-70
2022/04/10 03:04:39;;;;;;;;;6.00;4.75;;;;;;;;5095334;27;45553;-70
2022/04/10 03:07:04;;;;;;;;;4.00;4.00;;;;;;;;5097684;27;45534;-70
2022/04/10 03:09:29;;;;;;;;;3.25;3.25;;;;;;;;5093226;27;45406;-70
2022/04/10 03:11:55;;;;;;;;;5.75;4.25;;;;;;;;5093504;27;45448;-69
2022/04/10 03:14:20;;;;;;;;;3.25;3.25;;;;;;;;5095175;27;45395;-70
2022/04/10 03:16:45;;;;;;;;;5.50;5.50;;;;;;;;5096008;27;46052;-70
2022/04/10 03:19:10;;;;;;;;;3.00;3.00;;;;;;;;5097476;27;45349;-70
2022/04/10 03:21:35;;;;;;;;;3.25;3.00;;;;;;;;5094714;27;45487;-70
2022/04/10 03:24:01;;;;;;;;;5.00;4.00;;;;;;;;5089981;27;45435;-70
2022/04/10 03:26:27;;;;;;;;;4.00;2.00;;;;;;;;5093309;27;45485;-70
2022/04/10 03:28:52;;;;;;;;;4.00;4.00;;;;;;;;5091917;27;45529;-70
2022/04/10 03:31:17;;;;;;;;;5.75;5.50;;;;;;;;5097234;27;45531;-70
2022/04/10 03:33:42;;;;;;;;;4.25;3.50;;;;;;;;5092855;27;45405;-70
2022/04/10 03:36:07;;;;;;;;;4.00;3.00;;;;;;;;5093525;27;45393;-70
2022/04/10 03:38:32;;;;;;;;;5.00;4.00;;;;;;;;5094552;27;45355;-70
2022/04/10 03:40:58;;;;;;;;;6.25;3.00;;;;;;;;5091594;27;46351;-70
2022/04/10 03:43:23;;;;;;;;;3.75;3.75;;;;;;;;5095241;27;45308;-70
2022/04/10 03:45:48;;;;;;;;;4.25;4.25;;;;;;;;5093979;27;45435;-69
2022/04/10 03:48:13;;;;;;;;;5.50;5.50;;;;;;;;5094583;27;45379;-70
2022/04/10 03:50:39;;;;;;;;;4.75;4.50;;;;;;;;5086946;27;46324;-70
2022/04/10 03:53:04;;;;;;;;;3.75;3.75;;;;;;;;5094249;27;45404;-70
2022/04/10 03:55:30;;;;;;;;;4.75;4.00;;;;;;;;5096767;27;45890;-70
2022/04/10 03:57:56;;;;;;;;;5.75;3.75;;;;;;;;5095635;27;45298;-69
2022/04/10 04:00:21;;;;;;;;;6.50;2.75;;;;;;;;5092428;27;45586;-70
2022/04/10 04:02:46;;;;;;;;;4.00;3.25;;;;;;;;5086673;27;45427;-70
2022/04/10 04:05:12;;;;;;;;;4.00;4.00;;;;;;;;5093130;27;45449;-69
2022/04/10 04:07:37;;;;;;;;;3.75;3.75;;;;;;;;5094189;27;45336;-70
2022/04/10 04:10:03;;;;;;;;;3.00;3.00;;;;;;;;5096460;27;45979;-69
2022/04/10 04:12:28;;;;;;;;;6.50;4.25;;;;;;;;5093900;27;50660;-70
2022/04/10 04:14:53;;;;;;;;;3.50;3.50;;;;;;;;5094243;27;45486;-70
2022/04/10 04:17:18;;;;;;;;;4.25;4.25;;;;;;;;5094368;27;45537;-70
2022/04/10 04:19:46;;;;;;;;;3.00;3.00;;;;;;;;5092354;27;45417;-70
2022/04/10 04:22:11;;;;;;;;;4.00;4.00;;;;;;;;5095891;27;45361;-70
2022/04/10 04:24:36;;;;;;;;;4.50;4.00;;;;;;;;5093548;27;46675;-70
2022/04/10 04:27:02;;;;;;;;;5.00;4.50;;;;;;;;5091863;27;45595;-70
2022/04/10 04:29:27;;;;;;;;;5.00;3.00;;;;;;;;5093904;27;46413;-70
2022/04/10 04:31:52;;;;;;;;;4.00;4.00;;;;;;;;5094309;27;45403;-70
2022/04/10 04:34:17;;;;;;;;;4.25;4.25;;;;;;;;5096707;27;45499;-70
2022/04/10 04:36:43;;;;;;;;;3.00;3.00;;;;;;;;5092595;27;45579;-70
2022/04/10 04:39:08;;;;;;;;;5.00;5.00;;;;;;;;5095342;27;46449;-70
2022/04/10 04:41:33;;;;;;;;;4.00;4.00;;;;;;;;5094750;27;45492;-70
2022/04/10 04:43:58;;;;;;;;;5.75;4.75;;;;;;;;5094350;27;45555;-70
2022/04/10 04:46:23;;;;;;;;;4.00;3.75;;;;;;;;5095191;27;45473;-70
2022/04/10 04:48:49;;;;;;;;;4.00;4.00;;;;;;;;5093976;27;45449;-70
2022/04/10 04:51:14;;;;;;;;;4.00;4.00;;;;;;;;5093524;27;45429;-70
2022/04/10 04:53:40;;;;;;;;;3.00;3.00;;;;;;;;5092448;27;45334;-70
2022/04/10 04:56:05;;;;;;;;;4.00;3.50;;;;;;;;5093968;27;45496;-70
2022/04/10 04:58:30;;;;;;;;;3.00;3.00;;;;;;;;5094362;27;45471;-70
2022/04/10 05:00:55;;;;;;;;;3.75;3.75;;;;;;;;5095326;27;45741;-70
2022/04/10 05:03:20;;;;;;;;;4.00;4.00;;;;;;;;5093324;27;45520;-70
2022/04/10 05:05:45;;;;;;;;;4.75;3.50;;;;;;;;5093353;27;45532;-70
2022/04/10 05:08:11;;;;;;;;;3.25;3.25;;;;;;;;5093339;27;46363;-70
2022/04/10 05:10:36;;;;;;;;;3.00;3.00;;;;;;;;5093580;27;45315;-70
2022/04/10 05:13:01;;;;;;;;;4.50;3.75;;;;;;;;5096146;27;45510;-69
2022/04/10 05:15:26;;;;;;;;;5.25;4.00;;;;;;;;5093658;27;45272;-70
2022/04/10 05:17:51;;;;;;;;;4.00;4.00;;;;;;;;5093242;27;46135;-69
2022/04/10 05:20:17;;;;;;;;;4.75;3.75;;;;;;;;5091748;27;45391;-70
2022/04/10 05:22:43;;;;;;;;;4.75;4.75;;;;;;;;5097266;27;45390;-70
2022/04/10 05:25:08;;;;;;;;;3.25;3.25;;;;;;;;5099321;27;45432;-70
2022/04/10 05:27:33;;;;;;;;;4.00;3.00;;;;;;;;5096914;27;46228;-70
2022/04/10 05:29:59;;;;;;;;;5.75;4.75;;;;;;;;5095629;27;46087;-69
2022/04/10 05:32:24;;;;;;;;;4.50;3.75;;;;;;;;5096870;27;45391;-70
2022/04/10 05:34:49;;;;;;;;;5.00;5.00;;;;;;;;5095581;27;45404;-70
2022/04/10 05:37:14;;;;;;;;;5.25;4.75;;;;;;;;5098906;27;46312;-70
2022/04/10 05:39:39;;;;;;;;;4.50;4.50;;;;;;;;5096693;27;45613;-70
2022/04/10 05:42:08;;;;;;;;;5.00;5.00;;;;;;;;5095743;27;45436;-70
2022/04/10 05:44:34;;;;;;;;;5.75;4.25;;;;;;;;5094807;27;45483;-69
2022/04/10 05:46:59;;;;;;;;;5.00;5.00;;;;;;;;5096489;27;47060;-70
2022/04/10 05:49:25;;;;;;;;;5.50;5.50;;;;;;;;5079356;27;45382;-69
2022/04/10 05:51:51;;;;;;;;;3.00;3.00;;;;;;;;5096524;27;45470;-70
2022/04/10 05:54:16;;;;;;;;;4.25;3.50;;;;;;;;5096500;27;45390;-70
2022/04/10 05:56:41;;;;;;;;;4.75;3.25;;;;;;;;5096480;27;47123;-70
2022/04/10 05:59:07;;;;;;;;;4.00;4.00;;;;;;;;5094710;27;45418;-70
2022/04/10 06:01:32;;;;;;;;;4.25;4.25;;;;;;;;5095584;27;45443;-70
2022/04/10 06:03:57;;;;;;;;;5.25;4.50;;;;;;;;5097646;27;45618;-70
2022/04/10 06:06:22;;;;;;;;;3.00;3.00;;;;;;;;5096276;27;46543;-70
2022/04/10 06:08:48;;;;;;;;;5.00;3.75;;;;;;;;5094669;27;45535;-70
2022/04/10 06:11:13;;;;;;;;;6.50;5.00;;;;;;;;5096379;27;45354;-69
2022/04/10 06:13:38;;;;;;;;;5.50;4.25;;;;;;;;5096546;27;45267;-69
2022/04/10 06:16:04;;;;;;;;;5.00;4.00;;;;;;;;5091692;27;46562;-70
2022/04/10 06:18:29;;;;;;;;;6.25;5.00;;;;;;;;5093529;27;45465;-70
2022/04/10 06:20:54;;;;;;;;;4.50;3.75;;;;;;;;5096083;27;45463;-70
2022/04/10 06:23:21;;;;;;;;;4.00;4.00;;;;;;;;5079056;27;46603;-70
2022/04/10 06:25:46;;;;;;;;;3.75;3.50;;;;;;;;5091823;27;45643;-71
2022/04/10 06:28:12;;;;;;;;;4.00;4.00;;;;;;;;5098035;27;45237;-70
2022/04/10 06:30:37;;;;;;;;;4.00;4.00;;;;;;;;5096075;27;45362;-69
2022/04/10 06:33:02;;;;;;;;;7.00;4.00;;;;;;;;5094182;27;45312;-69
2022/04/10 06:35:27;;;;;;;;;4.00;3.25;;;;;;;;5095644;27;46272;-70
2022/04/10 06:37:52;;;;;;;;;4.50;4.50;;;;;;;;5093190;27;45386;-69
2022/04/10 06:40:18;;;;;;;;;3.00;3.00;;;;;;;;5098142;27;45407;-70
2022/04/10 06:42:43;;;;;;;;;4.25;4.25;;;;;;;;5091230;27;45318;-70
2022/04/10 06:45:08;;;;;;;;;3.00;3.00;;;;;;;;5093292;27;45623;-70
2022/04/10 06:47:33;;;;;;;;;5.75;5.00;;;;;;;;5094923;27;45501;-70
2022/04/10 06:49:59;;;;;;;;;4.75;4.75;;;;;;;;5095551;27;45357;-70
2022/04/10 06:52:24;;;;;;;;;4.00;4.00;;;;;;;;5087145;27;45491;-70
2022/04/10 06:54:50;;;;;;;;;6.25;5.00;;;;;;;;5094891;27;45362;-70
2022/04/10 06:57:15;;;;;;;;;5.00;3.50;;;;;;;;5095069;27;45417;-70
2022/04/10 06:59:40;;;;;;;;;6.75;3.75;;;;;;;;5094958;27;45462;-70
2022/04/10 07:02:06;;;;;;;;;4.25;4.25;;;;;;;;5095507;27;45248;-70
2022/04/10 07:04:31;;;;;;;;;2.00;2.00;;;;;;;;5095546;27;46145;-70
2022/04/10 07:06:56;;;;;;;;;4.00;4.00;;;;;;;;5078027;27;45447;-69
2022/04/10 07:09:21;;;;;;;;;4.00;4.00;;;;;;;;5093234;27;48694;-70
2022/04/10 07:11:47;;;;;;;;;5.00;5.00;;;;;;;;5095056;27;45553;-70
2022/04/10 07:14:12;;;;;;;;;4.25;4.25;;;;;;;;5093381;27;45564;-70
2022/04/10 07:16:37;;;;;;;;;7.75;5.00;;;;;;;;5095277;27;45283;-70
2022/04/10 07:19:02;;;;;;;;;3.75;3.75;;;;;;;;5097370;27;45711;-70
2022/04/10 07:24:12;;;;;;;;;4.25;3.75;;;;;;;;5095873;27;45721;-69
2022/04/10 07:26:37;;;;;;;;;4.00;4.00;;;;;;;;5095341;27;45339;-70
2022/04/10 07:29:03;;;;;;;;;6.75;4.25;;;;;;;;5094919;27;45352;-70
2022/04/10 07:31:28;;;;;;;;;5.00;4.00;;;;;;;;5095831;27;45729;-70
2022/04/10 07:33:53;;;;;;;;;4.75;4.00;;;;;;;;5094459;27;45505;-70
2022/04/10 07:36:18;;;;;;;;;4.00;4.00;;;;;;;;5094984;27;45309;-70
2022/04/10 07:38:44;;;;;;;;;3.25;3.25;;;;;;;;5095174;27;45293;-70
2022/04/10 07:41:09;;;;;;;;;3.50;3.50;;;;;;;;5094611;27;45402;-70
2022/04/10 07:43:34;;;;;;;;;4.00;4.00;;;;;;;;5094308;27;46080;-69
2022/04/10 07:48:43;;;;;;;;;4.00;4.00;;;;;;;;5094121;27;45389;-70
2022/04/10 07:51:08;;;;;;;;;5.75;5.00;;;;;;;;5094556;27;45474;-70
2022/04/10 07:53:34;;;;;;;;;4.50;4.50;;;;;;;;5093160;27;45587;-70
2022/04/10 07:55:59;;;;;;;;;6.25;5.00;;;;;;;;5092032;27;45497;-70
2022/04/10 07:58:25;;;;;;;;;7.25;4.50;;;;;;;;5079792;27;45472;-71
2022/04/10 08:00:50;;;;;;;;;5.00;3.00;;;;;;;;5094823;27;45354;-69
2022/04/10 08:03:15;;;;;;;;;3.75;3.75;;;;;;;;5092992;27;45699;-70
2022/04/10 08:05:40;;;;;;;;;3.00;3.00;;;;;;;;5092473;27;45413;-70
2022/04/10 08:08:06;;;;;;;;;3.50;3.50;;;;;;;;5092004;27;45454;-70
2022/04/10 08:10:31;;;;;;;;;3.50;3.50;;;;;;;;5095345;27;45502;-71
2022/04/10 08:12:58;;;;;;;;;3.00;3.00;;;;;;;;5095183;27;46098;-70
2022/04/10 08:15:23;;;;;;;;;4.00;4.00;;;;;;;;5090954;27;45556;-70
2022/04/10 08:17:49;;;;;;;;;4.75;4.00;;;;;;;;5094100;27;45494;-70
2022/04/10 08:20:16;;;;;;;;;8.00;5.00;;;;;;;;5094237;27;45377;-69
2022/04/10 08:22:41;;;;;;;;;4.00;4.00;;;;;;;;5094035;27;45339;-71
2022/04/10 08:25:07;;;;;;;;;6.50;4.00;;;;;;;;5095969;27;45508;-70
2022/04/10 08:27:33;;;;;;;;;4.75;4.75;;;;;;;;5094426;27;45540;-70
2022/04/10 08:29:58;;;;;;;;;5.00;5.00;;;;;;;;5093592;27;45296;-70
2022/04/10 08:32:24;;;;;;;;;4.25;4.25;;;;;;;;5093483;27;45286;-70
2022/04/10 08:34:50;;;;;;;;;6.00;4.00;;;;;;;;5092558;27;45288;-69
2022/04/10 08:37:15;;;;;;;;;4.00;3.75;;;;;;;;5096247;27;45386;-70
2022/04/10 08:39:41;;;;;;;;;5.75;5.00;;;;;;;;5093436;27;45322;-70
2022/04/10 08:42:06;;;;;;;;;3.00;3.00;;;;;;;;5093632;27;45505;-69
2022/04/10 08:44:32;;;;;;;;;4.25;4.25;;;;;;;;5093106;27;45365;-69
2022/04/10 08:47:00;;;;;;;;;3.75;3.50;;;;;;;;5077691;27;45436;-70
2022/04/10 08:49:26;;;;;;;;;4.75;4.00;;;;;;;;5094769;27;45418;-70
2022/04/10 08:51:51;;;;;;;;;4.00;3.00;;;;;;;;5095443;27;46118;-70
2022/04/10 08:54:18;;;;;;;;;3.75;3.75;;;;;;;;5075967;27;45524;-70
2022/04/10 08:56:43;;;;;;;;;4.00;3.00;;;;;;;;5093770;27;45414;-70
2022/04/10 08:59:08;;;;;;;;;6.00;5.00;;;;;;;;5094533;27;45438;-70
2022/04/10 09:01:34;;;;;;;;;3.75;3.00;;;;;;;;5078612;27;46897;-70
2022/04/10 09:03:59;;;;;;;;;4.00;4.00;;;;;;;;5096839;27;45396;-70
2022/04/10 09:06:24;;;;;;;;;4.25;4.00;;;;;;;;5077029;27;45477;-70
2022/04/10 09:08:49;;;;;;;;;3.75;3.75;;;;;;;;5095489;27;45541;-70
2022/04/10 09:11:14;;;;;;;;;4.75;3.75;;;;;;;;5095250;27;45398;-70
2022/04/10 09:13:43;;;;;;;;;4.25;4.25;;;;;;;;5096552;27;45465;-70
2022/04/10 09:16:13;;;;;;;;;5.50;4.00;;;;;;;;5098366;27;45551;-71
2022/04/10 09:18:49;;;;;;;;;3.00;3.00;;;;;;;;5095334;27;45386;-70
2022/04/10 09:21:14;;;;;;;;;3.00;3.00;;;;;;;;5095252;27;47322;-70
2022/04/10 09:23:40;;;;;;;;;6.00;4.25;;;;;;;;5087648;27;45510;-73
2022/04/10 09:26:05;;;;;;;;;5.50;4.00;;;;;;;;5097399;27;45443;-70
2022/04/10 09:28:43;;;;;;;;;3.50;3.50;;;;;;;;5096317;27;45368;-69
2022/04/10 09:31:29;;;;;;;;;3.00;3.00;;;;;;;;5097909;27;45678;-69
2022/04/10 09:33:54;;;;;;;;;3.50;3.50;;;;;;;;5094927;27;45462;-71
2022/04/10 09:36:39;;;;;;;;;3.50;2.75;;;;;;;;5096664;27;45487;-72
2022/04/10 09:39:06;;;;;;;;;2.50;2.50;;;;;;;;5070777;27;45616;-79
2022/04/10 09:41:31;;;;;;;;;4.25;4.25;;;;;;;;5095920;27;45550;-69
2022/04/10 09:44:09;;;;;;;;;4.00;3.25;;;;;;;;5094117;27;45411;-69
2022/04/10 09:46:35;;;;;;;;;4.00;3.50;;;;;;;;5097286;27;45446;-69
2022/04/10 09:49:04;;;;;;;;;3.50;3.50;;;;;;;;5098312;27;45477;-69
2022/04/10 09:51:29;;;;;;;;;4.00;4.00;;;;;;;;5096179;27;45596;-70
2022/04/10 09:54:02;;;;;;;;;3.00;3.00;;;;;;;;5095310;27;45296;-70
2022/04/10 09:56:28;;;;;;;;;4.00;3.00;;;;;;;;5096832;27;45500;-70
2022/04/10 09:58:55;;;;;;;;;3.50;3.50;;;;;;;;5096671;27;45386;-70
2022/04/10 10:01:20;;;;;;;;;4.25;4.25;;;;;;;;5098128;27;46206;-71
2022/04/10 10:03:46;;;;;;;;;2.75;1.25;;;;;;;;5094700;27;45472;-69
2022/04/10 10:06:12;;;;;;;;;4.00;1.00;;;;;;;;5092289;27;45622;-69
2022/04/10 10:08:38;;;;;;;;;2.00;2.00;;;;;;;;5095990;27;45552;-72
2022/04/10 10:11:08;;;;;;;;;1.75;1.75;;;;;;;;5095458;27;46780;-72
2022/04/10 10:13:34;;;;;;;;;1.00;0.50;;;;;;;;5096560;27;45253;-71
2022/04/10 10:15:59;;;;;;;;;2.00;2.00;;;;;;;;5098338;27;45394;-71
2022/04/10 10:18:25;;;;;;;;;3.25;1.00;;;;;;;;5095565;27;45402;-72
2022/04/10 10:20:50;;;;;;;;;2.75;1.50;;;;;;;;5094593;27;45335;-70
2022/04/10 10:23:18;;;;;;;;;1.00;1.00;;;;;;;;5094262;27;45641;-71
2022/04/10 10:25:48;;;;;;;;;2.00;2.00;;;;;;;;5094967;27;45568;-71
2022/04/10 10:28:22;;;;;;;;;0.50;0.50;;;;;;;;5097742;27;45481;-70
2022/04/10 10:31:06;;;;;;;;;4.00;2.00;;;;;;;;5095922;27;46182;-69
2022/04/10 10:33:33;;;;;;;;;3.00;2.00;;;;;;;;5093503;27;45526;-68
2022/04/10 10:35:59;;;;;;;;;4.00;1.75;;;;;;;;5094467;27;46408;-69
2022/04/10 10:38:25;;;;;;;;;1.00;1.00;;;;;;;;5093343;27;45622;-68
2022/04/10 10:40:51;;;;;;;;;1.00;1.00;;;;;;;;5095049;27;45417;-69
2022/04/10 10:43:22;;;;;;;;;2.00;2.00;;;;;;;;5097850;27;45457;-68
2022/04/10 10:45:49;;;;;;;;;1.00;1.00;;;;;;;;5093628;27;45347;-68
2022/04/10 10:48:32;;;;;;;;;1.50;0.75;;;;;;;;5096725;27;45475;-68
2022/04/10 10:51:22;;;;;;;;;1.25;1.00;;;;;;;;5096337;27;46375;-68
2022/04/10 10:53:49;;;;;;;;;3.00;2.00;;;;;;;;5085566;27;45319;-68
2022/04/10 10:56:14;;;;;;;;;2.00;2.00;;;;;;;;5095290;27;45437;-68
2022/04/10 10:58:40;;;;;;;;;1.25;1.25;;;;;;;;5095509;27;45292;-68
2022/04/10 11:01:06;;;;;;;;;1.25;1.25;;;;;;;;5089531;27;46968;-68
2022/04/10 11:03:32;;;;;;;;;2.25;1.00;;;;;;;;5091262;27;45563;-68
2022/04/10 11:06:05;;;;;;;;;2.00;1.00;;;;;;;;5095419;27;45454;-68
2022/04/10 11:08:37;;;;;;;;;3.00;2.00;;;;;;;;5093441;27;45311;-68
2022/04/10 11:11:03;;;;;;;;;1.00;1.00;;;;;;;;5092535;27;45345;-68
2022/04/10 11:13:44;;;;;;;;;1.00;1.00;;;;;;;;5094689;27;45281;-71
2022/04/10 11:16:10;;;;;;;;;1.25;1.25;;;;;;;;5096359;27;45331;-72
2022/04/10 11:18:40;;;;;;;;;3.75;1.00;;;;;;;;5076435;27;45440;-74
2022/04/10 11:21:09;;;;;;;;;1.50;1.50;;;;;;;;5092919;27;45461;-70
2022/04/10 11:23:39;;;;;;;;;1.00;1.00;;;;;;;;5092611;27;45632;-71
2022/04/10 11:26:08;;;;;;;;;2.00;2.00;;;;;;;;5090036;27;45371;-70
2022/04/10 11:28:55;;;;;;;;;0.75;0.75;;;;;;;;5089259;27;45447;-71
2022/04/10 11:31:40;;;;;;;;;2.75;2.00;;;;;;;;5092264;27;46699;-71
2022/04/10 11:34:26;;;;;;;;;1.25;1.25;;;;;;;;5089974;27;45377;-71
2022/04/10 11:36:53;;;;;;;;;1.00;1.00;;;;;;;;5094077;27;45414;-70
2022/04/10 11:39:25;;;;;;;;;1.75;1.75;;;;;;;;5091848;27;45414;-70
2022/04/10 11:41:52;;;;;;;;;0.00;0.00;;;;;;;;5089977;27;46263;-71
2022/04/10 11:44:17;;;;;;;;;4.00;1.75;;;;;;;;5092084;27;45468;-71
2022/04/10 11:46:46;;;;;;;;;1.00;1.00;;;;;;;;5091096;27;45498;-71
2022/04/10 11:49:11;;;;;;;;;2.25;1.50;;;;;;;;5092871;27;45697;-70
2022/04/10 11:51:53;;;;;;;;;1.25;1.25;;;;;;;;5091763;27;45291;-71
2022/04/10 11:54:36;;;;;;;;;1.50;1.50;;;;;;;;5085741;27;45576;-71
2022/04/10 11:57:05;;;;;;;;;1.00;1.00;;;;;;;;5090774;27;45469;-70
2022/04/10 11:59:33;;;;;;;;;1.00;1.00;;;;;;;;5091968;27;45475;-71
2022/04/10 12:01:59;;;;;;;;;0.25;0.25;;;;;;;;5092313;27;46643;-70
2022/04/10 12:04:24;;;;;;;;;1.25;1.25;;;;;;;;5093101;27;45492;-71
2022/04/10 12:06:49;;;;;;;;;2.50;2.00;;;;;;;;5092028;27;45547;-71
2022/04/10 12:09:14;;;;;;;;;0.33;0.00;;;;;;;;5091197;27;45499;-73
2022/04/10 12:11:40;;;;;;;;;1.00;1.00;;;;;;;;5094577;27;45453;-74
2022/04/10 12:14:15;;;;;;;;;1.00;1.00;;;;;;;;5093590;27;45316;-74
2022/04/10 12:16:44;;;;;;;;;1.75;1.75;;;;;;;;5092084;27;45572;-74
2022/04/10 12:19:09;;;;;;;;;1.00;1.00;;;;;;;;5095324;27;45485;-72
2022/04/10 12:21:35;;;;;;;;;1.25;1.25;;;;;;;;5092866;27;46255;-73
2022/04/10 12:24:04;;;;;;;;;1.00;1.00;;;;;;;;5092986;27;45517;-72
2022/04/10 12:26:29;;;;;;;;;2.00;1.00;;;;;;;;5093025;27;45370;-74
2022/04/10 12:28:55;;;;;;;;;1.00;1.00;;;;;;;;5090183;27;45347;-73
2022/04/10 12:31:21;;;;;;;;;1.00;1.00;;;;;;;;5095765;27;45257;-73
2022/04/10 12:33:46;;;;;;;;;1.00;1.00;;;;;;;;5093004;27;45399;-73
2022/04/10 12:36:19;;;;;;;;;1.75;1.00;;;;;;;;5088550;27;45488;-72
2022/04/10 12:38:44;;;;;;;;;2.00;1.00;;;;;;;;5091632;27;45352;-73
2022/04/10 12:41:10;;;;;;;;;1.00;1.00;;;;;;;;5090987;27;46914;-73
2022/04/10 12:43:35;;;;;;;;;1.00;1.00;;;;;;;;5094185;27;45548;-68
2022/04/10 12:46:10;;;;;;;;;1.00;1.00;;;;;;;;5094206;27;45281;-68
2022/04/10 12:48:37;;;;;;;;;2.00;2.00;;;;;;;;5091243;27;45490;-68
2022/04/10 12:51:08;;;;;;;;;2.25;1.50;;;;;;;;5092033;27;46529;-67
2022/04/10 12:53:34;;;;;;;;;2.00;0.50;;;;;;;;5090820;27;45453;-68
2022/04/10 12:55:59;;;;;;;;;3.00;2.00;;;;;;;;5091295;27;45346;-68
2022/04/10 12:58:30;;;;;;;;;3.50;2.00;;;;;;;;5091689;27;45265;-70
2022/04/10 13:00:56;;;;;;;;;1.50;1.50;;;;;;;;5088359;27;46533;-70
2022/04/10 13:03:28;;;;;;;;;1.00;1.00;;;;;;;;5090458;27;45324;-71
2022/04/10 13:06:01;;;;;;;;;1.00;1.00;;;;;;;;5090741;27;45307;-70
2022/04/10 13:08:27;;;;;;;;;2.50;2.50;;;;;;;;5093577;27;45406;-70
2022/04/10 13:10:55;;;;;;;;;1.50;1.00;;;;;;;;5084297;27;47325;-67
2022/04/10 13:13:20;;;;;;;;;1.00;1.00;;;;;;;;5090436;27;45398;-67
2022/04/10 13:15:45;;;;;;;;;1.00;1.00;;;;;;;;5094677;27;45267;-67
2022/04/10 13:18:10;;;;;;;;;1.25;1.25;;;;;;;;5094232;27;45391;-67
2022/04/10 13:20:36;;;;;;;;;1.50;1.50;;;;;;;;5092679;27;46738;-67
2022/04/10 13:23:02;;;;;;;;;2.00;2.00;;;;;;;;5093214;27;45441;-67
2022/04/10 13:25:27;;;;;;;;;2.75;1.50;;;;;;;;5088783;27;45381;-67
2022/04/10 13:27:53;;;;;;;;;2.00;2.00;;;;;;;;5088366;27;45560;-67
2022/04/10 13:30:18;;;;;;;;;3.00;3.00;;;;;;;;5092020;27;46029;-67
2022/04/10 13:32:43;;;;;;;;;4.25;2.00;;;;;;;;5088960;27;45472;-67
2022/04/10 13:35:09;;;;;;;;;1.25;1.25;;;;;;;;5086590;27;45460;-67
2022/04/10 13:37:35;;;;;;;;;2.25;2.00;;;;;;;;5087656;27;45482;-67
2022/04/10 13:40:00;;;;;;;;;2.00;2.00;;;;;;;;5091218;27;46456;-67
2022/04/10 13:42:25;;;;;;;;;3.75;2.25;;;;;;;;5096227;27;45534;-69
2022/04/10 13:44:51;;;;;;;;;3.75;1.75;;;;;;;;5096398;27;45359;-68
2022/04/10 13:47:17;;;;;;;;;2.00;2.00;;;;;;;;5096453;27;45248;-67
2022/04/10 13:49:42;;;;;;;;;2.00;2.00;;;;;;;;5095632;27;45370;-69
2022/04/10 13:52:07;;;;;;;;;3.25;1.00;;;;;;;;5096898;27;45505;-67
2022/04/10 13:54:32;;;;;;;;;2.00;2.00;;;;;;;;5079305;27;45758;-67
2022/04/10 13:56:58;;;;;;;;;1.25;1.25;;;;;;;;5097542;27;45432;-68
2022/04/10 13:59:23;;;;;;;;;1.00;1.00;;;;;;;;5093596;27;45460;-68
2022/04/10 14:01:48;;;;;;;;;1.00;1.00;;;;;;;;5096662;27;45473;-68
2022/04/10 14:04:13;;;;;;;;;2.00;2.00;;;;;;;;5098285;27;45358;-68
2022/04/10 14:06:39;;;;;;;;;2.00;2.00;;;;;;;;5096639;27;45236;-70
2022/04/10 14:09:04;;;;;;;;;2.00;2.00;;;;;;;;5096003;27;45389;-70
2022/04/10 14:11:30;;;;;;;;;2.00;2.00;;;;;;;;5096177;27;45306;-71
2022/04/10 14:13:55;;;;;;;;;1.00;1.00;;;;;;;;5096720;27;45544;-71
2022/04/10 14:16:21;;;;;;;;;1.00;1.00;;;;;;;;5097946;27;45359;-71
2022/04/10 14:18:47;;;;;;;;;2.00;2.00;;;;;;;;5089129;27;46262;-69
2022/04/10 14:21:12;;;;;;;;;1.75;1.50;;;;;;;;5089643;27;45453;-71
2022/04/10 14:23:38;;;;;;;;;2.00;2.00;;;;;;;;5096319;27;45490;-71
2022/04/10 14:26:03;;;;;;;;;2.00;2.00;;;;;;;;5096385;27;45410;-71
2022/04/10 14:28:28;;;;;;;;;2.25;2.00;;;;;;;;5097169;27;46557;-71
2022/04/10 14:30:53;;;;;;;;;2.00;2.00;;;;;;;;5095305;27;45334;-70
2022/04/10 14:33:20;;;;;;;;;2.00;2.00;;;;;;;;5094023;27;45318;-71
2022/04/10 14:35:45;;;;;;;;;2.25;2.25;;;;;;;;5094414;27;45339;-71
2022/04/10 14:38:13;;;;;;;;;2.00;1.00;;;;;;;;5095611;27;45777;-71
2022/04/10 14:40:39;;;;;;;;;3.25;2.00;;;;;;;;5096196;27;45477;-71
2022/04/10 14:43:04;;;;;;;;;2.25;1.25;;;;;;;;5098277;27;45510;-71
2022/04/10 14:45:29;;;;;;;;;1.00;1.00;;;;;;;;5094633;27;48184;-71
2022/04/10 14:47:54;;;;;;;;;2.25;2.25;;;;;;;;5094842;27;46261;-71